sensor_id;sensor_type;location;lat;lon;timestamp;pressure;altitude;pressure_sealevel;temperature;humidity
43217;BME280;60511;42.686;23.300;2023-01-30T00:01:16;94926.66;;;21.07;25.74
43217;BME280;60511;42.686;23.300;2023-01-30T00:03:18;94922.56;;;21.22;25.59
43217;BME280;60511;42.686;23.300;2023-01-30T00:05:19;94774.69;;;20.17;25.78
43217;BME280;60511;42.686;23.300;2023-01-30T00:07:19;94791.97;;;20.28;25.98
43217;BME280;60511;42.686;23.300;2023-01-30T00:09:23;94906.88;;;21.24;25.59
43217;BME280;60511;42.686;23.300;2023-01-30T00:11:24;94899.09;;;21.11;25.96
43217;BME280;60511;42.686;23.300;2023-01-30T00:13:29;94935.56;;;21.20;25.56
43217;BME280;60511;42.686;23.300;2023-01-30T00:15:31;94400.44;;;17.73;26.10
43217;BME280;60511;42.686;23.300;2023-01-30T00:17:31;94808.91;;;20.50;26.01
43217;BME280;60511;42.686;23.300;2023-01-30T00:19:32;94797.25;;;20.25;26.06
43217;BME280;60511;42.686;23.300;2023-01-30T00:21:40;94826.41;;;20.56;26.06
43217;BME280;60511;42.686;23.300;2023-01-30T00:23:41;94860.41;;;20.82;25.70
43217;BME280;60511;42.686;23.300;2023-01-30T00:25:44;94793.72;;;20.33;26.02
43217;BME280;60511;42.686;23.300;2023-01-30T00:27:50;94869.50;;;20.90;25.76
43217;BME280;60511;42.686;23.300;2023-01-30T00:29:54;94809.91;;;20.45;25.68
43217;BME280;60511;42.686;23.300;2023-01-30T00:31:54;94912.16;;;21.21;25.63
43217;BME280;60511;42.686;23.300;2023-01-30T00:33:54;94861.84;;;20.79;25.86
43217;BME280;60511;42.686;23.300;2023-01-30T00:35:56;94841.19;;;20.71;25.75
43217;BME280;60511;42.686;23.300;2023-01-30T00:37:57;94916.63;;;21.17;25.89
43217;BME280;60511;42.686;23.300;2023-01-30T00:39:58;94908.56;;;21.17;25.88
43217;BME280;60511;42.686;23.300;2023-01-30T00:41:58;94838.91;;;20.61;25.85
43217;BME280;60511;42.686;23.300;2023-01-30T00:51:08;94892.72;;;21.15;25.95
43217;BME280;60511;42.686;23.300;2023-01-30T00:53:14;94896.53;;;21.14;25.79
43217;BME280;60511;42.686;23.300;2023-01-30T00:55:15;94889.56;;;21.13;26.00
43217;BME280;60511;42.686;23.300;2023-01-30T00:57:17;94843.00;;;20.79;25.81
43217;BME280;60511;42.686;23.300;2023-01-30T00:59:17;94859.66;;;20.94;25.82
43217;BME280;60511;42.686;23.300;2023-01-30T01:01:18;94885.75;;;21.14;25.89
43217;BME280;60511;42.686;23.300;2023-01-30T01:03:20;94845.72;;;20.79;25.85
43217;BME280;60511;42.686;23.300;2023-01-30T01:05:20;94867.28;;;20.92;25.63
43217;BME280;60511;42.686;23.300;2023-01-30T01:07:21;94867.09;;;20.97;25.74
43217;BME280;60511;42.686;23.300;2023-01-30T01:09:22;94869.66;;;20.93;25.84
43217;BME280;60511;42.686;23.300;2023-01-30T01:11:22;94860.78;;;20.93;25.77
43217;BME280;60511;42.686;23.300;2023-01-30T01:13:23;94891.50;;;21.13;25.90
43217;BME280;60511;42.686;23.300;2023-01-30T01:15:25;94855.75;;;20.91;26.01
43217;BME280;60511;42.686;23.300;2023-01-30T01:17:25;94839.31;;;20.84;25.86
43217;BME280;60511;42.686;23.300;2023-01-30T01:19:26;94727.34;;;20.04;25.77
43217;BME280;60511;42.686;23.300;2023-01-30T01:21:26;94834.41;;;20.86;25.61
43217;BME280;60511;42.686;23.300;2023-01-30T01:23:27;94744.59;;;20.24;25.75
43217;BME280;60511;42.686;23.300;2023-01-30T01:25:27;94712.28;;;20.12;25.83
43217;BME280;60511;42.686;23.300;2023-01-30T01:27:29;94879.59;;;21.14;25.87
43217;BME280;60511;42.686;23.300;2023-01-30T01:29:29;94790.63;;;20.64;25.52
43217;BME280;60511;42.686;23.300;2023-01-30T01:31:30;94879.13;;;21.12;25.67
43217;BME280;60511;42.686;23.300;2023-01-30T01:33:30;94866.00;;;21.10;25.57
43217;BME280;60511;42.686;23.300;2023-01-30T01:35:31;94866.81;;;21.11;25.43
43217;BME280;60511;42.686;23.300;2023-01-30T01:37:39;94862.06;;;21.07;25.39
43217;BME280;60511;42.686;23.300;2023-01-30T01:39:40;94864.44;;;21.09;25.64
43217;BME280;60511;42.686;23.300;2023-01-30T01:42:01;94845.88;;;20.95;25.79
43217;BME280;60511;42.686;23.300;2023-01-30T01:44:05;94864.13;;;21.11;25.54
43217;BME280;60511;42.686;23.300;2023-01-30T01:46:15;94860.38;;;21.03;25.55
43217;BME280;60511;42.686;23.300;2023-01-30T01:48:26;94780.09;;;20.51;25.46
43217;BME280;60511;42.686;23.300;2023-01-30T01:52:43;94837.72;;;21.04;25.62
43217;BME280;60511;42.686;23.300;2023-01-30T01:54:52;94861.13;;;21.24;25.54
43217;BME280;60511;42.686;23.300;2023-01-30T01:56:55;94816.94;;;20.92;25.60
43217;BME280;60511;42.686;23.300;2023-01-30T01:59:08;94730.25;;;20.20;25.50
43217;BME280;60511;42.686;23.300;2023-01-30T02:01:11;94834.84;;;20.88;25.68
43217;BME280;60511;42.686;23.300;2023-01-30T02:03:16;94813.75;;;20.78;25.68
43217;BME280;60511;42.686;23.300;2023-01-30T02:05:17;94838.13;;;20.94;25.45
43217;BME280;60511;42.686;23.300;2023-01-30T02:07:20;94843.09;;;21.04;25.57
43217;BME280;60511;42.686;23.300;2023-01-30T02:09:21;94844.75;;;20.96;25.61
43217;BME280;60511;42.686;23.300;2023-01-30T02:11:33;94868.97;;;21.17;25.65
43217;BME280;60511;42.686;23.300;2023-01-30T02:13:37;94835.00;;;20.92;25.50
43217;BME280;60511;42.686;23.300;2023-01-30T02:15:38;94829.47;;;20.88;25.67
43217;BME280;60511;42.686;23.300;2023-01-30T02:17:38;94833.06;;;20.92;25.44
43217;BME280;60511;42.686;23.300;2023-01-30T02:29:09;94864.91;;;21.11;25.28
43217;BME280;60511;42.686;23.300;2023-01-30T02:31:30;94841.25;;;20.83;25.38
43217;BME280;60511;42.686;23.300;2023-01-30T02:35:51;94862.84;;;21.08;25.32
43217;BME280;60511;42.686;23.300;2023-01-30T02:40:29;94867.47;;;21.07;25.06
43217;BME280;60511;42.686;23.300;2023-01-30T02:42:42;94858.59;;;21.07;25.30
43217;BME280;60511;42.686;23.300;2023-01-30T02:44:51;94774.28;;;20.48;25.26
43217;BME280;60511;42.686;23.300;2023-01-30T02:47:05;94856.25;;;21.05;25.29
43217;BME280;60511;42.686;23.300;2023-01-30T02:49:13;94759.69;;;20.37;25.42
43217;BME280;60511;42.686;23.300;2023-01-30T02:51:28;94818.81;;;20.79;25.05
43217;BME280;60511;42.686;23.300;2023-01-30T02:53:30;94846.59;;;21.04;25.02
43217;BME280;60511;42.686;23.300;2023-01-30T02:55:32;94829.41;;;20.97;25.12
43217;BME280;60511;42.686;23.300;2023-01-30T02:57:32;94818.81;;;20.79;25.16
43217;BME280;60511;42.686;23.300;2023-01-30T02:59:44;94829.44;;;20.76;25.36
43217;BME280;60511;42.686;23.300;2023-01-30T03:09:19;94856.66;;;20.95;25.34
43217;BME280;60511;42.686;23.300;2023-01-30T03:11:23;94836.63;;;20.84;25.42
43217;BME280;60511;42.686;23.300;2023-01-30T03:13:33;94849.50;;;20.99;25.12
43217;BME280;60511;42.686;23.300;2023-01-30T03:15:53;94773.03;;;20.46;25.30
43217;BME280;60511;42.686;23.300;2023-01-30T03:17:56;94740.13;;;20.28;25.40
43217;BME280;60511;42.686;23.300;2023-01-30T03:19:58;94847.66;;;20.91;25.16
43217;BME280;60511;42.686;23.300;2023-01-30T03:21:58;94747.66;;;20.35;25.29
43217;BME280;60511;42.686;23.300;2023-01-30T03:23:59;94728.00;;;20.22;25.41
43217;BME280;60511;42.686;23.300;2023-01-30T03:26:02;94834.00;;;20.96;25.17
43217;BME280;60511;42.686;23.300;2023-01-30T03:28:04;94809.72;;;20.84;25.31
43217;BME280;60511;42.686;23.300;2023-01-30T03:30:06;94605.97;;;19.47;25.60
43217;BME280;60511;42.686;23.300;2023-01-30T03:32:07;94803.78;;;20.78;25.30
43217;BME280;60511;42.686;23.300;2023-01-30T03:34:07;94790.53;;;20.73;25.26
43217;BME280;60511;42.686;23.300;2023-01-30T03:36:09;94771.03;;;20.55;25.41
43217;BME280;60511;42.686;23.300;2023-01-30T03:38:09;94747.16;;;20.41;25.32
43217;BME280;60511;42.686;23.300;2023-01-30T03:40:11;94741.78;;;20.41;25.48
43217;BME280;60511;42.686;23.300;2023-01-30T03:42:12;94832.09;;;20.97;25.22
43217;BME280;60511;42.686;23.300;2023-01-30T03:44:13;94814.34;;;20.83;25.31
43217;BME280;60511;42.686;23.300;2023-01-30T03:46:14;94807.72;;;20.81;25.42
43217;BME280;60511;42.686;23.300;2023-01-30T03:48:14;94760.84;;;20.48;25.19
43217;BME280;60511;42.686;23.300;2023-01-30T03:50:15;94648.16;;;19.89;25.42
43217;BME280;60511;42.686;23.300;2023-01-30T03:52:15;94745.84;;;20.47;25.26
43217;BME280;60511;42.686;23.300;2023-01-30T03:54:15;94834.66;;;20.93;25.28
43217;BME280;60511;42.686;23.300;2023-01-30T03:56:16;94729.66;;;20.35;25.34
43217;BME280;60511;42.686;23.300;2023-01-30T03:58:16;94790.31;;;20.66;25.28
43217;BME280;60511;42.686;23.300;2023-01-30T04:00:17;94807.19;;;20.87;25.30
43217;BME280;60511;42.686;23.300;2023-01-30T04:02:17;94786.63;;;20.71;25.10
43217;BME280;60511;42.686;23.300;2023-01-30T04:04:22;94723.47;;;20.35;25.20
43217;BME280;60511;42.686;23.300;2023-01-30T04:06:22;94805.53;;;20.95;25.23
43217;BME280;60511;42.686;23.300;2023-01-30T04:08:23;94725.59;;;20.29;25.16
43217;BME280;60511;42.686;23.300;2023-01-30T04:10:24;94719.09;;;20.30;25.39
43217;BME280;60511;42.686;23.300;2023-01-30T04:12:24;94740.09;;;20.49;25.25
43217;BME280;60511;42.686;23.300;2023-01-30T04:14:25;94808.88;;;20.92;25.09
43217;BME280;60511;42.686;23.300;2023-01-30T04:16:26;94813.00;;;20.90;25.18
43217;BME280;60511;42.686;23.300;2023-01-30T04:18:27;94807.41;;;20.82;25.03
43217;BME280;60511;42.686;23.300;2023-01-30T04:20:27;94766.63;;;20.59;25.18
43217;BME280;60511;42.686;23.300;2023-01-30T04:22:27;94758.16;;;20.48;25.43
43217;BME280;60511;42.686;23.300;2023-01-30T04:24:28;94776.19;;;20.69;25.36
43217;BME280;60511;42.686;23.300;2023-01-30T04:26:28;94635.97;;;19.71;25.53
43217;BME280;60511;42.686;23.300;2023-01-30T04:28:28;94783.34;;;20.65;25.28
43217;BME280;60511;42.686;23.300;2023-01-30T04:30:29;94729.06;;;20.30;25.38
43217;BME280;60511;42.686;23.300;2023-01-30T04:32:29;94775.50;;;20.60;25.21
43217;BME280;60511;42.686;23.300;2023-01-30T04:34:29;94771.66;;;20.61;25.22
43217;BME280;60511;42.686;23.300;2023-01-30T04:36:30;94786.63;;;20.71;25.35
43217;BME280;60511;42.686;23.300;2023-01-30T04:38:31;94808.75;;;20.89;25.35
43217;BME280;60511;42.686;23.300;2023-01-30T04:40:32;94752.78;;;20.48;25.38
43217;BME280;60511;42.686;23.300;2023-01-30T04:42:33;94702.91;;;20.18;25.14
43217;BME280;60511;42.686;23.300;2023-01-30T04:44:34;94787.25;;;20.67;25.28
43217;BME280;60511;42.686;23.300;2023-01-30T04:46:34;94757.59;;;20.55;25.30
43217;BME280;60511;42.686;23.300;2023-01-30T04:48:34;94720.78;;;20.35;25.26
43217;BME280;60511;42.686;23.300;2023-01-30T04:50:35;94730.34;;;20.44;25.40
43217;BME280;60511;42.686;23.300;2023-01-30T04:52:35;94750.22;;;20.52;25.40
43217;BME280;60511;42.686;23.300;2023-01-30T04:54:35;94793.41;;;20.89;25.19
43217;BME280;60511;42.686;23.300;2023-01-30T04:56:36;94754.22;;;20.67;25.46
43217;BME280;60511;42.686;23.300;2023-01-30T04:58:36;94788.94;;;20.93;25.27
43217;BME280;60511;42.686;23.300;2023-01-30T05:00:37;94668.66;;;20.15;25.42
43217;BME280;60511;42.686;23.300;2023-01-30T05:02:38;94736.31;;;20.50;25.50
43217;BME280;60511;42.686;23.300;2023-01-30T05:04:38;94755.97;;;20.63;25.50
43217;BME280;60511;42.686;23.300;2023-01-30T05:06:39;94779.16;;;20.89;25.43
43217;BME280;60511;42.686;23.300;2023-01-30T05:08:39;94786.09;;;20.90;25.63
43217;BME280;60511;42.686;23.300;2023-01-30T05:10:39;94712.66;;;20.43;25.65
43217;BME280;60511;42.686;23.300;2023-01-30T05:12:40;94642.38;;;19.99;25.53
43217;BME280;60511;42.686;23.300;2023-01-30T05:14:40;94717.00;;;20.36;25.39
43217;BME280;60511;42.686;23.300;2023-01-30T05:16:40;94704.19;;;20.33;25.39
43217;BME280;60511;42.686;23.300;2023-01-30T05:18:41;94666.47;;;20.08;25.33
43217;BME280;60511;42.686;23.300;2023-01-30T05:20:42;94695.13;;;20.25;25.50
43217;BME280;60511;42.686;23.300;2023-01-30T05:22:42;94691.06;;;20.19;25.38
43217;BME280;60511;42.686;23.300;2023-01-30T05:24:42;94756.19;;;20.58;25.52
43217;BME280;60511;42.686;23.300;2023-01-30T05:26:43;94748.44;;;20.56;25.60
43217;BME280;60511;42.686;23.300;2023-01-30T05:28:43;94750.66;;;20.54;25.22
43217;BME280;60511;42.686;23.300;2023-01-30T05:30:44;94686.09;;;20.09;25.20
43217;BME280;60511;42.686;23.300;2023-01-30T05:32:44;94703.97;;;20.25;25.32
43217;BME280;60511;42.686;23.300;2023-01-30T05:34:44;94716.41;;;20.30;25.39
43217;BME280;60511;42.686;23.300;2023-01-30T05:36:45;94703.69;;;20.18;25.38
43217;BME280;60511;42.686;23.300;2023-01-30T05:38:45;94734.50;;;20.42;25.30
43217;BME280;60511;42.686;23.300;2023-01-30T05:40:46;94681.34;;;20.05;25.44
43217;BME280;60511;42.686;23.300;2023-01-30T05:42:46;94660.72;;;19.97;25.45
43217;BME280;60511;42.686;23.300;2023-01-30T05:44:46;94731.66;;;20.38;25.39
43217;BME280;60511;42.686;23.300;2023-01-30T05:46:47;94745.16;;;20.51;25.61
43217;BME280;60511;42.686;23.300;2023-01-30T05:48:47;94718.75;;;20.32;25.27
43217;BME280;60511;42.686;23.300;2023-01-30T05:50:52;94790.34;;;20.78;25.21
43217;BME280;60511;42.686;23.300;2023-01-30T05:52:52;94776.03;;;20.65;25.34
43217;BME280;60511;42.686;23.300;2023-01-30T05:54:52;94740.31;;;20.44;25.45
43217;BME280;60511;42.686;23.300;2023-01-30T05:56:53;94704.38;;;20.15;25.58
43217;BME280;60511;42.686;23.300;2023-01-30T05:58:54;94645.28;;;19.73;25.38
43217;BME280;60511;42.686;23.300;2023-01-30T06:01:02;94663.16;;;19.90;25.38
43217;BME280;60511;42.686;23.300;2023-01-30T06:03:03;94790.88;;;20.72;25.70
43217;BME280;60511;42.686;23.300;2023-01-30T06:05:03;94781.09;;;20.67;25.39
43217;BME280;60511;42.686;23.300;2023-01-30T06:07:04;94783.34;;;20.65;25.23
43217;BME280;60511;42.686;23.300;2023-01-30T06:09:04;94643.88;;;19.67;25.35
43217;BME280;60511;42.686;23.300;2023-01-30T06:11:13;94818.25;;;20.86;25.25
43217;BME280;60511;42.686;23.300;2023-01-30T06:13:14;94798.16;;;20.71;25.25
43217;BME280;60511;42.686;23.300;2023-01-30T06:15:14;94732.97;;;20.32;25.58
43217;BME280;60511;42.686;23.300;2023-01-30T06:17:16;94767.44;;;20.51;25.48
43217;BME280;60511;42.686;23.300;2023-01-30T06:19:16;94747.78;;;20.38;25.42
43217;BME280;60511;42.686;23.300;2023-01-30T06:21:16;94779.28;;;20.59;25.30
43217;BME280;60511;42.686;23.300;2023-01-30T06:23:17;94808.97;;;20.83;25.48
43217;BME280;60511;42.686;23.300;2023-01-30T06:25:18;94726.50;;;20.33;25.45
43217;BME280;60511;42.686;23.300;2023-01-30T06:27:18;94669.69;;;20.01;25.60
43217;BME280;60511;42.686;23.300;2023-01-30T06:29:19;94754.28;;;20.58;25.44
43217;BME280;60511;42.686;23.300;2023-01-30T06:31:19;94692.69;;;20.11;25.30
43217;BME280;60511;42.686;23.300;2023-01-30T06:33:20;94710.31;;;20.21;25.69
43217;BME280;60511;42.686;23.300;2023-01-30T06:35:20;94797.88;;;20.85;25.34
43217;BME280;60511;42.686;23.300;2023-01-30T06:37:21;94744.66;;;20.36;25.58
43217;BME280;60511;42.686;23.300;2023-01-30T06:39:21;94763.19;;;20.50;25.47
43217;BME280;60511;42.686;23.300;2023-01-30T06:41:22;94805.03;;;20.81;25.34
43217;BME280;60511;42.686;23.300;2023-01-30T06:43:23;94758.53;;;20.59;25.82
43217;BME280;60511;42.686;23.300;2023-01-30T06:45:23;94747.66;;;20.56;25.76
43217;BME280;60511;42.686;23.300;2023-01-30T06:47:24;94811.97;;;20.82;25.65
43217;BME280;60511;42.686;23.300;2023-01-30T06:49:25;94596.06;;;19.39;25.50
43217;BME280;60511;42.686;23.300;2023-01-30T06:51:26;94716.66;;;20.16;25.30
43217;BME280;60511;42.686;23.300;2023-01-30T06:53:26;94772.00;;;20.59;25.41
43217;BME280;60511;42.686;23.300;2023-01-30T06:55:32;94626.59;;;19.56;25.39
43217;BME280;60511;42.686;23.300;2023-01-30T06:57:35;94768.56;;;20.50;25.61
43217;BME280;60511;42.686;23.300;2023-01-30T06:59:36;94708.75;;;19.99;25.27
43217;BME280;60511;42.686;23.300;2023-01-30T07:01:36;94741.72;;;20.29;25.36
43217;BME280;60511;42.686;23.300;2023-01-30T07:03:37;94765.97;;;20.41;25.39
43217;BME280;60511;42.686;23.300;2023-01-30T07:05:38;94725.53;;;20.17;25.28
43217;BME280;60511;42.686;23.300;2023-01-30T07:07:39;94812.38;;;20.72;25.21
43217;BME280;60511;42.686;23.300;2023-01-30T07:09:39;94778.00;;;20.56;25.13
43217;BME280;60511;42.686;23.300;2023-01-30T07:11:40;94735.28;;;20.21;25.33
43217;BME280;60511;42.686;23.300;2023-01-30T07:13:40;94762.22;;;20.34;25.04
43217;BME280;60511;42.686;23.300;2023-01-30T07:15:40;94772.78;;;20.39;25.27
43217;BME280;60511;42.686;23.300;2023-01-30T07:17:41;94604.00;;;19.36;25.52
43217;BME280;60511;42.686;23.300;2023-01-30T07:19:45;94717.94;;;20.19;25.47
43217;BME280;60511;42.686;23.300;2023-01-30T07:21:45;94819.72;;;20.83;25.58
43217;BME280;60511;42.686;23.300;2023-01-30T07:23:46;94820.19;;;20.85;25.50
43217;BME280;60511;42.686;23.300;2023-01-30T07:25:46;94724.69;;;20.25;25.47
43217;BME280;60511;42.686;23.300;2023-01-30T07:27:54;94713.06;;;20.12;25.69
43217;BME280;60511;42.686;23.300;2023-01-30T07:29:55;94807.72;;;20.81;25.49
43217;BME280;60511;42.686;23.300;2023-01-30T07:31:55;94742.63;;;20.33;25.54
43217;BME280;60511;42.686;23.300;2023-01-30T07:33:55;94820.50;;;20.84;25.47
43217;BME280;60511;42.686;23.300;2023-01-30T07:35:56;94735.75;;;20.23;25.63
43217;BME280;60511;42.686;23.300;2023-01-30T07:37:57;94721.72;;;20.18;25.61
43217;BME280;60511;42.686;23.300;2023-01-30T07:39:58;94693.63;;;19.94;25.76
43217;BME280;60511;42.686;23.300;2023-01-30T07:42:00;94838.72;;;20.99;25.52
43217;BME280;60511;42.686;23.300;2023-01-30T07:44:01;94799.28;;;20.70;25.38
43217;BME280;60511;42.686;23.300;2023-01-30T07:46:01;94798.59;;;20.73;25.50
43217;BME280;60511;42.686;23.300;2023-01-30T07:48:03;94835.25;;;20.99;25.36
43217;BME280;60511;42.686;23.300;2023-01-30T07:50:03;94753.31;;;20.42;25.52
43217;BME280;60511;42.686;23.300;2023-01-30T07:52:04;94777.22;;;20.56;25.17
43217;BME280;60511;42.686;23.300;2023-01-30T07:54:04;94741.78;;;20.41;25.73
43217;BME280;60511;42.686;23.300;2023-01-30T07:56:09;94828.75;;;21.00;25.44
43217;BME280;60511;42.686;23.300;2023-01-30T07:58:13;94784.84;;;20.75;25.40
43217;BME280;60511;42.686;23.300;2023-01-30T08:00:17;94750.06;;;20.48;25.56
43217;BME280;60511;42.686;23.300;2023-01-30T08:02:17;94722.03;;;20.37;25.29
43217;BME280;60511;42.686;23.300;2023-01-30T08:04:18;94739.44;;;20.52;25.17
43217;BME280;60511;42.686;23.300;2023-01-30T08:06:18;94804.97;;;21.02;25.48
43217;BME280;60511;42.686;23.300;2023-01-30T08:08:19;94771.16;;;20.80;25.50
43217;BME280;60511;42.686;23.300;2023-01-30T08:10:20;94689.53;;;20.30;25.52
43217;BME280;60511;42.686;23.300;2023-01-30T08:12:20;94795.41;;;20.92;25.40
43217;BME280;60511;42.686;23.300;2023-01-30T08:14:20;94681.72;;;20.16;25.38
43217;BME280;60511;42.686;23.300;2023-01-30T08:16:22;94768.16;;;20.81;25.39
43217;BME280;60511;42.686;23.300;2023-01-30T08:18:22;94787.47;;;20.96;25.48
43217;BME280;60511;42.686;23.300;2023-01-30T08:20:24;94810.03;;;21.03;25.41
43217;BME280;60511;42.686;23.300;2023-01-30T08:22:24;94763.31;;;20.75;25.48
43217;BME280;60511;42.686;23.300;2023-01-30T08:24:25;94759.59;;;20.67;25.56
43217;BME280;60511;42.686;23.300;2023-01-30T08:26:25;94780.59;;;20.86;25.60
43217;BME280;60511;42.686;23.300;2023-01-30T08:28:27;94791.53;;;21.02;25.50
43217;BME280;60511;42.686;23.300;2023-01-30T08:30:28;94699.72;;;20.37;25.42
43217;BME280;60511;42.686;23.300;2023-01-30T08:32:29;94684.16;;;20.30;25.73
43217;BME280;60511;42.686;23.300;2023-01-30T08:34:30;94623.19;;;19.89;25.39
43217;BME280;60511;42.686;23.300;2023-01-30T08:36:30;94749.09;;;20.74;25.30
43217;BME280;60511;42.686;23.300;2023-01-30T08:38:31;94657.03;;;20.23;25.43
43217;BME280;60511;42.686;23.300;2023-01-30T08:40:32;94793.88;;;21.03;25.57
43217;BME280;60511;42.686;23.300;2023-01-30T08:42:32;94776.19;;;21.02;25.43
43217;BME280;60511;42.686;23.300;2023-01-30T08:44:32;94745.13;;;20.72;25.53
43217;BME280;60511;42.686;23.300;2023-01-30T08:46:33;94646.69;;;20.13;25.53
43217;BME280;60511;42.686;23.300;2023-01-30T08:48:33;94716.78;;;20.62;25.43
43217;BME280;60511;42.686;23.300;2023-01-30T08:50:34;94716.22;;;20.69;25.51
43217;BME280;60511;42.686;23.300;2023-01-30T08:52:35;94699.91;;;20.53;25.41
43217;BME280;60511;42.686;23.300;2023-01-30T08:54:35;94729.56;;;20.65;25.62
43217;BME280;60511;42.686;23.300;2023-01-30T08:56:35;94648.97;;;20.23;25.44
43217;BME280;60511;42.686;23.300;2023-01-30T08:58:36;94664.78;;;20.37;25.57
43217;BME280;60511;42.686;23.300;2023-01-30T09:00:37;94773.94;;;21.04;25.40
43217;BME280;60511;42.686;23.300;2023-01-30T09:02:40;94752.28;;;21.01;25.58
43217;BME280;60511;42.686;23.300;2023-01-30T09:04:40;94768.22;;;21.06;25.47
43217;BME280;60511;42.686;23.300;2023-01-30T09:06:41;94764.28;;;21.03;25.50
43217;BME280;60511;42.686;23.300;2023-01-30T09:08:42;94730.63;;;20.85;25.33
43217;BME280;60511;42.686;23.300;2023-01-30T09:10:42;94715.69;;;20.75;25.40
43217;BME280;60511;42.686;23.300;2023-01-30T09:12:42;94518.16;;;19.48;25.68
43217;BME280;60511;42.686;23.300;2023-01-30T09:14:43;94535.78;;;19.58;25.50
43217;BME280;60511;42.686;23.300;2023-01-30T09:16:44;94752.50;;;20.96;25.47
43217;BME280;60511;42.686;23.300;2023-01-30T09:18:44;94764.47;;;20.98;25.32
43217;BME280;60511;42.686;23.300;2023-01-30T09:20:44;94670.56;;;20.47;25.25
43217;BME280;60511;42.686;23.300;2023-01-30T09:22:45;94755.66;;;21.10;25.25
43217;BME280;60511;42.686;23.300;2023-01-30T09:24:46;94652.25;;;20.41;25.17
43217;BME280;60511;42.686;23.300;2023-01-30T09:26:46;94673.47;;;20.55;25.52
43217;BME280;60511;42.686;23.300;2023-01-30T09:28:47;94674.25;;;20.55;25.34
43217;BME280;60511;42.686;23.300;2023-01-30T09:30:47;94609.31;;;20.20;25.30
43217;BME280;60511;42.686;23.300;2023-01-30T09:32:48;94720.50;;;20.82;25.32
43217;BME280;60511;42.686;23.300;2023-01-30T09:34:48;94700.09;;;20.69;25.41
43217;BME280;60511;42.686;23.300;2023-01-30T09:36:48;94753.66;;;21.07;25.44
43217;BME280;60511;42.686;23.300;2023-01-30T09:38:49;94631.63;;;20.33;25.46
43217;BME280;60511;42.686;23.300;2023-01-30T09:43:22;94741.88;;;21.12;25.37
43217;BME280;60511;42.686;23.300;2023-01-30T09:45:38;94738.72;;;21.10;25.42
43217;BME280;60511;42.686;23.300;2023-01-30T09:52:53;94734.13;;;21.10;25.32
43217;BME280;60511;42.686;23.300;2023-01-30T09:55:16;94728.41;;;21.12;25.62
43217;BME280;60511;42.686;23.300;2023-01-30T09:57:24;94734.13;;;21.10;25.36
43217;BME280;60511;42.686;23.300;2023-01-30T09:59:30;94636.16;;;20.53;25.40
43217;BME280;60511;42.686;23.300;2023-01-30T10:01:58;94715.75;;;21.12;25.22
43217;BME280;60511;42.686;23.300;2023-01-30T10:04:26;94697.22;;;20.98;25.17
43217;BME280;60511;42.686;23.300;2023-01-30T10:06:30;94681.75;;;20.95;25.20
43217;BME280;60511;42.686;23.300;2023-01-30T10:16:23;94680.53;;;21.17;25.18
43217;BME280;60511;42.686;23.300;2023-01-30T10:18:54;94680.22;;;21.19;25.01
43217;BME280;60511;42.686;23.300;2023-01-30T10:21:07;94675.03;;;21.14;24.98
43217;BME280;60511;42.686;23.300;2023-01-30T10:23:21;94672.59;;;21.21;25.00
43217;BME280;60511;42.686;23.300;2023-01-30T10:25:45;94668.75;;;21.22;25.13
43217;BME280;60511;42.686;23.300;2023-01-30T10:28:03;94647.22;;;21.10;25.13
43217;BME280;60511;42.686;23.300;2023-01-30T10:30:06;94661.91;;;21.24;24.86
43217;BME280;60511;42.686;23.300;2023-01-30T10:34:48;94443.22;;;19.76;25.15
43217;BME280;60511;42.686;23.300;2023-01-30T10:37:29;94653.84;;;21.24;24.86
43217;BME280;60511;42.686;23.300;2023-01-30T10:39:44;94645.44;;;21.26;24.99
43217;BME280;60511;42.686;23.300;2023-01-30T10:44:10;94611.91;;;21.11;24.96
43217;BME280;60511;42.686;23.300;2023-01-30T10:49:03;94628.25;;;21.31;24.80
43217;BME280;60511;42.686;23.300;2023-01-30T10:53:41;94610.88;;;21.28;24.90
43217;BME280;60511;42.686;23.300;2023-01-30T10:55:47;94614.47;;;21.32;24.91
43217;BME280;60511;42.686;23.300;2023-01-30T11:05:12;94556.88;;;21.09;24.74
43217;BME280;60511;42.686;23.300;2023-01-30T11:07:14;94571.72;;;21.31;24.71
43217;BME280;60511;42.686;23.300;2023-01-30T11:09:14;94523.56;;;21.01;24.72
43217;BME280;60511;42.686;23.300;2023-01-30T11:11:27;94580.91;;;21.42;24.47
43217;BME280;60511;42.686;23.300;2023-01-30T11:13:29;94571.72;;;21.43;24.82
43217;BME280;60511;42.686;23.300;2023-01-30T11:15:40;94550.75;;;21.24;24.57
43217;BME280;60511;42.686;23.300;2023-01-30T11:17:41;94569.69;;;21.40;24.97
43217;BME280;60511;42.686;23.300;2023-01-30T11:19:42;94550.09;;;21.27;24.65
43217;BME280;60511;42.686;23.300;2023-01-30T11:21:47;94467.31;;;20.83;24.88
43217;BME280;60511;42.686;23.300;2023-01-30T11:23:52;94361.88;;;20.13;24.60
43217;BME280;60511;42.686;23.300;2023-01-30T11:25:56;94508.91;;;21.26;24.72
43217;BME280;60511;42.686;23.300;2023-01-30T11:28:04;94527.63;;;21.48;24.79
43217;BME280;60511;42.686;23.300;2023-01-30T11:30:12;94538.97;;;21.69;24.64
43217;BME280;60511;42.686;23.300;2023-01-30T11:32:27;94522.88;;;21.57;24.51
43217;BME280;60511;42.686;23.300;2023-01-30T11:34:28;94537.56;;;21.59;24.87
43217;BME280;60511;42.686;23.300;2023-01-30T11:36:33;94480.00;;;21.23;24.87
43217;BME280;60511;42.686;23.300;2023-01-30T11:38:36;94408.69;;;20.89;24.56
43217;BME280;60511;42.686;23.300;2023-01-30T11:40:39;94473.91;;;21.26;24.58
43217;BME280;60511;42.686;23.300;2023-01-30T11:42:43;94435.69;;;20.93;24.65
43217;BME280;60511;42.686;23.300;2023-01-30T11:44:44;94456.50;;;21.08;24.77
43217;BME280;60511;42.686;23.300;2023-01-30T11:46:45;94480.44;;;21.25;24.86